createdAt,value
2019-02-21T00:01:30.812Z,37.13
2019-02-21T00:04:01.037Z,35.60
2019-02-21T00:06:31.256Z,36.30
2019-02-21T00:09:01.421Z,36.10
2019-02-21T00:11:31.540Z,36.90
2019-02-21T00:14:01.772Z,36.63
2019-02-21T00:16:31.967Z,36.17
2019-02-21T00:19:02.133Z,36.00
2019-02-21T00:21:32.225Z,36.20
2019-02-21T00:24:02.392Z,36.13
2019-02-21T00:26:32.525Z,35.70
2019-02-21T00:29:02.774Z,35.00
2019-02-21T00:31:32.927Z,34.10
2019-02-21T00:34:03.106Z,34.67
2019-02-21T00:36:33.238Z,33.83
2019-02-21T00:39:05.113Z,34.93
2019-02-21T00:41:35.311Z,34.73
2019-02-21T00:44:05.562Z,35.90
2019-02-21T00:46:35.775Z,34.57
2019-02-21T00:49:06.005Z,36.30
2019-02-21T00:51:37.225Z,33.03
2019-02-21T00:54:07.478Z,34.47
2019-02-21T00:56:37.681Z,33.87
2019-02-21T00:59:07.999Z,38.00
2019-02-21T01:01:38.215Z,37.13
2019-02-21T01:04:08.436Z,36.50
2019-02-21T01:06:38.632Z,36.43
2019-02-21T01:09:08.893Z,35.33
2019-02-21T01:11:39.097Z,35.53
2019-02-21T01:14:09.268Z,36.23
2019-02-21T01:16:39.481Z,33.70
2019-02-21T01:19:09.687Z,33.17
2019-02-21T01:21:39.969Z,33.73
2019-02-21T01:24:10.218Z,32.93
2019-02-21T01:26:40.421Z,32.37
2019-02-21T01:29:10.632Z,33.13
2019-02-21T01:31:40.824Z,34.37
2019-02-21T01:34:11.094Z,33.83
2019-02-21T01:36:41.309Z,31.73
2019-02-21T01:39:11.553Z,31.70
2019-02-21T01:41:41.725Z,32.40
2019-02-21T01:44:12.703Z,32.70
2019-02-21T01:46:42.887Z,33.23
2019-02-21T01:49:13.132Z,32.03
2019-02-21T01:51:44.256Z,30.67
2019-02-21T01:54:14.501Z,32.97
2019-02-21T01:56:44.698Z,32.70
2019-02-21T01:59:14.948Z,29.93
2019-02-21T02:01:45.069Z,29.93
2019-02-21T02:04:15.320Z,31.77
2019-02-21T02:06:45.530Z,31.17
2019-02-21T02:09:15.798Z,30.43
2019-02-21T02:11:45.973Z,33.90
2019-02-21T02:14:16.190Z,30.70
2019-02-21T02:16:46.299Z,28.83
2019-02-21T02:19:16.459Z,29.53
2019-02-21T02:21:46.484Z,28.53
2019-02-21T02:24:16.753Z,27.60
2019-02-21T02:26:46.950Z,29.73
2019-02-21T02:29:17.198Z,27.17
2019-02-21T02:31:48.404Z,28.70
2019-02-21T02:34:18.676Z,26.97
2019-02-21T02:36:48.851Z,26.67
2019-02-21T02:39:19.102Z,26.77
2019-02-21T02:41:49.306Z,27.47
2019-02-21T02:44:19.528Z,27.00
2019-02-21T02:46:49.744Z,27.17
2019-02-21T02:49:19.920Z,24.23
2019-02-21T02:51:51.123Z,27.53
2019-02-21T02:54:21.371Z,24.53
2019-02-21T02:56:51.570Z,27.23
2019-02-21T02:59:21.950Z,24.43
2019-02-21T03:01:52.157Z,25.30
2019-02-21T03:04:22.454Z,25.00
2019-02-21T03:06:52.700Z,26.83
2019-02-21T03:09:22.893Z,26.27
2019-02-21T03:11:53.021Z,27.27
2019-02-21T03:14:23.197Z,24.47
2019-02-21T03:16:53.435Z,24.80
2019-02-21T03:19:23.604Z,25.10
2019-02-21T03:21:53.798Z,23.93
2019-02-21T03:24:24.055Z,24.20
2019-02-21T03:26:54.261Z,26.03
2019-02-21T03:29:24.479Z,25.77
2019-02-21T03:31:56.113Z,23.90
2019-02-21T03:34:26.740Z,24.47
2019-02-21T03:36:56.959Z,26.73
2019-02-21T03:39:27.186Z,24.30
2019-02-21T03:41:57.404Z,24.47
2019-02-21T03:44:27.757Z,24.83
2019-02-21T03:46:57.955Z,25.33
2019-02-21T03:49:28.217Z,21.80
2019-02-21T03:51:59.273Z,22.00
2019-02-21T03:54:29.507Z,22.10
2019-02-21T03:56:59.709Z,23.17
2019-02-21T03:59:29.988Z,22.83
2019-02-21T04:02:05.431Z,24.23
2019-02-21T04:04:31.920Z,22.37
2019-02-21T04:07:02.116Z,21.67
2019-02-21T04:09:32.301Z,21.43
2019-02-21T04:12:02.443Z,21.13
2019-02-21T04:14:32.897Z,21.00
2019-02-21T04:17:03.109Z,20.50
2019-02-21T04:19:33.289Z,20.33
2019-02-21T04:22:03.418Z,21.40
2019-02-21T04:24:33.561Z,20.80
2019-02-21T04:27:03.661Z,20.17
2019-02-21T04:29:34.127Z,23.57
2019-02-21T04:32:16.053Z,19.10
2019-02-21T04:34:36.134Z,20.27
2019-02-21T04:37:06.316Z,20.20
2019-02-21T04:39:36.549Z,20.90
2019-02-21T04:42:06.703Z,20.93
2019-02-21T04:44:36.912Z,20.20
2019-02-21T04:47:07.043Z,21.10
2019-02-21T04:49:37.199Z,19.07
2019-02-21T04:52:08.463Z,19.50
2019-02-21T04:54:38.682Z,19.17
2019-02-21T04:57:08.729Z,18.53
2019-02-21T04:59:39.500Z,20.77
2019-02-21T05:02:09.685Z,20.17
2019-02-21T05:04:39.940Z,19.30
2019-02-21T05:07:10.134Z,19.07
2019-02-21T05:09:40.289Z,31.90
2019-02-21T05:12:10.493Z,19.83
2019-02-21T05:14:40.723Z,19.10
2019-02-21T05:17:10.929Z,19.67
2019-02-21T05:19:41.170Z,20.50
2019-02-21T05:22:11.341Z,19.10
2019-02-21T05:24:41.591Z,44.13
2019-02-21T05:27:13.380Z,20.13
2019-02-21T05:29:43.652Z,19.50
2019-02-21T05:32:15.431Z,19.17
2019-02-21T05:34:47.261Z,18.07
2019-02-21T05:37:35.088Z,18.93
2019-02-21T05:40:07.105Z,18.23
2019-02-21T05:42:44.904Z,17.57
2019-02-21T05:45:25.619Z,17.53
2019-02-21T05:48:06.312Z,18.23
2019-02-21T05:50:44.131Z,17.63
2019-02-21T05:53:22.679Z,17.47
2019-02-21T05:55:57.237Z,17.80
2019-02-21T05:58:29.019Z,19.03
2019-02-21T06:01:10.031Z,17.90
2019-02-21T06:03:44.488Z,18.03
2019-02-21T06:06:19.059Z,18.07
2019-02-21T06:08:53.481Z,16.87
2019-02-21T06:11:28.168Z,17.43
2019-02-21T06:13:59.880Z,17.27
2019-02-21T06:16:43.567Z,17.83
2019-02-21T06:19:15.254Z,16.47
2019-02-21T06:22:10.522Z,16.40
2019-02-21T06:24:38.233Z,16.67
2019-02-21T06:27:15.577Z,16.10
2019-02-21T06:29:47.345Z,15.27
2019-02-21T06:32:17.593Z,15.00
2019-02-21T06:34:47.798Z,14.73
2019-02-21T06:37:17.977Z,14.93
2019-02-21T06:39:48.151Z,15.80
2019-02-21T06:42:18.390Z,14.77
2019-02-21T06:44:48.511Z,15.10
2019-02-21T06:47:18.770Z,14.63
2019-02-21T06:49:48.953Z,16.37
2019-02-21T06:52:19.203Z,15.67
2019-02-21T06:54:50.286Z,14.63
2019-02-21T06:57:20.462Z,13.70
2019-02-21T06:59:50.664Z,15.60
2019-02-21T07:02:21.001Z,15.17
2019-02-21T07:04:51.136Z,14.87
2019-02-21T07:07:21.307Z,15.10
2019-02-21T07:09:51.528Z,15.90
2019-02-21T07:12:21.755Z,16.80
2019-02-21T07:14:51.951Z,17.07
2019-02-21T07:17:22.222Z,14.20
2019-02-21T07:19:52.454Z,16.30
2019-02-21T07:22:22.721Z,14.70
2019-02-21T07:24:54.526Z,17.47
2019-02-21T07:27:24.813Z,17.23
2019-02-21T07:29:55.096Z,14.63
2019-02-21T07:32:25.370Z,15.77
2019-02-21T07:34:57.189Z,14.90
2019-02-21T07:37:27.467Z,15.70
2019-02-21T07:39:57.673Z,15.47
2019-02-21T07:42:27.946Z,14.63
2019-02-21T07:44:59.743Z,14.90
2019-02-21T07:47:30.041Z,14.43
2019-02-21T07:50:00.337Z,15.53
2019-02-21T07:52:32.028Z,15.13
2019-02-21T07:55:03.061Z,18.10
2019-02-21T07:57:33.329Z,22.60
2019-02-21T08:00:04.046Z,16.53
2019-02-21T08:02:34.403Z,18.53
2019-02-21T08:05:07.521Z,18.67
2019-02-21T08:07:37.841Z,20.13
2019-02-21T08:10:10.649Z,19.60
2019-02-21T08:12:40.948Z,17.87
2019-02-21T08:15:12.531Z,18.50
2019-02-21T08:17:42.822Z,17.85
2019-02-21T08:20:13.131Z,19.70
2019-02-21T08:22:43.301Z,19.00
2019-02-21T08:25:13.431Z,17.63
2019-02-21T08:27:43.609Z,14.07
2019-02-21T08:30:15.415Z,13.83
2019-02-21T08:33:05.701Z,11.13
2019-02-21T08:35:35.951Z,10.27
2019-02-21T08:38:08.643Z,7.10
2019-02-21T08:40:40.393Z,6.17
2019-02-21T08:43:13.590Z,5.87
2019-02-21T08:45:43.793Z,5.67
2019-02-21T08:48:14.033Z,6.90
2019-02-21T08:50:44.209Z,6.60
2019-02-21T08:53:14.434Z,7.20
2019-02-21T08:55:45.643Z,6.17
2019-02-21T08:58:17.228Z,7.10
2019-02-21T09:00:54.311Z,6.30
2019-02-21T09:03:27.911Z,3.67
2019-02-21T09:05:58.022Z,3.87
2019-02-21T09:08:33.517Z,5.47
2019-02-21T09:11:00.142Z,5.63
2019-02-21T09:13:30.393Z,4.87
2019-02-21T09:16:00.817Z,4.90
2019-02-21T09:18:31.082Z,2.73
2019-02-21T09:21:01.973Z,4.00
2019-02-21T09:23:33.316Z,5.20
2019-02-21T09:26:03.511Z,6.03
2019-02-21T09:28:33.809Z,6.10
2019-02-21T09:31:04.061Z,5.03
2019-02-21T09:33:34.303Z,10.60
2019-02-21T09:36:04.722Z,3.20
2019-02-21T09:38:36.659Z,3.60
2019-02-21T09:41:07.657Z,4.00
2019-02-21T09:43:41.900Z,4.17
2019-02-21T09:46:13.700Z,4.27
2019-02-21T09:48:45.528Z,4.33
2019-02-21T09:51:18.661Z,5.43
2019-02-21T09:53:55.765Z,4.73
2019-02-21T09:56:31.626Z,4.57
2019-02-21T10:57:01.608Z,15.53
2019-02-21T10:59:31.980Z,15.68
2019-02-21T11:02:02.262Z,16.43
2019-02-21T11:04:32.507Z,10.45
2019-02-21T11:07:06.058Z,7.97
2019-02-21T11:09:36.349Z,4.10
2019-02-21T11:12:06.587Z,5.40
2019-02-21T11:14:46.944Z,5.40
2019-02-21T11:17:10.720Z,6.43
2019-02-21T11:19:40.850Z,4.27
2019-02-21T11:22:11.030Z,4.33
2019-02-21T11:24:41.147Z,5.77
2019-02-21T11:27:11.438Z,5.03
2019-02-21T11:29:41.721Z,4.97
2019-02-21T11:32:11.954Z,8.50
2019-02-21T11:34:44.927Z,6.23
2019-02-21T11:37:15.182Z,6.83
2019-02-21T11:39:45.313Z,5.00
2019-02-21T11:42:26.906Z,6.28
2019-02-21T11:45:17.894Z,5.13
2019-02-21T11:50:43.823Z,7.12
2019-02-21T11:53:17.692Z,9.30
2019-02-21T11:56:18.849Z,5.70
2019-02-21T11:59:22.469Z,17.10
2019-02-21T12:02:15.229Z,14.28
2019-02-21T12:05:30.343Z,8.93
2019-02-21T12:08:28.773Z,3.90
2019-02-21T12:11:31.833Z,5.40
2019-02-21T12:14:36.292Z,9.77
2019-02-21T12:17:33.356Z,5.70
2019-02-21T12:20:38.849Z,5.20
2019-02-21T12:23:37.944Z,7.17
2019-02-21T12:26:56.769Z,3.77
2019-02-21T12:30:26.461Z,5.20
2019-02-21T12:33:35.782Z,5.73
2019-02-21T12:36:38.224Z,9.93
2019-02-21T12:43:27.908Z,6.40
2019-02-21T12:46:38.022Z,3.87
2019-02-21T12:49:39.721Z,4.70
2019-02-21T12:52:29.580Z,7.70
2019-02-21T12:59:12.561Z,7.53
2019-02-21T13:02:06.604Z,5.73
2019-02-21T13:04:53.293Z,5.13
2019-02-21T13:07:59.233Z,4.40
2019-02-21T13:10:42.387Z,5.67
2019-02-21T13:13:50.956Z,4.40
2019-02-21T13:17:05.948Z,5.23
2019-02-21T13:20:00.715Z,3.70
2019-02-21T13:22:49.406Z,4.23
2019-02-21T13:25:32.322Z,5.73
2019-02-21T13:31:36.326Z,5.05
2019-02-21T15:53:22.972Z,6.97
2019-02-21T15:55:53.428Z,7.20
2019-02-21T15:58:23.711Z,14.03
2019-02-21T16:00:53.974Z,17.37
2019-02-21T16:03:24.235Z,23.07
2019-02-21T16:05:54.511Z,13.90
2019-02-21T16:08:24.813Z,6.77
2019-02-21T16:10:55.752Z,6.37
2019-02-21T16:13:26.144Z,6.73
2019-02-21T16:15:56.496Z,7.57
2019-02-21T16:18:26.745Z,7.10
2019-02-21T16:20:56.987Z,5.13
2019-02-21T16:23:27.241Z,4.37
2019-02-21T16:25:57.439Z,5.23
2019-02-21T16:28:27.689Z,7.57
2019-02-21T16:30:58.352Z,8.27
2019-02-21T16:33:28.562Z,10.57
2019-02-21T16:35:58.783Z,6.10
2019-02-21T16:38:28.971Z,5.17
2019-02-21T16:40:59.223Z,6.57
2019-02-21T16:43:29.810Z,10.63
2019-02-21T16:46:07.845Z,10.03
2019-02-21T16:48:32.549Z,9.23
2019-02-21T16:51:02.820Z,8.13
2019-02-21T16:53:33.029Z,7.93
2019-02-21T16:56:03.436Z,7.62
2019-02-21T16:58:33.624Z,6.67
2019-02-21T17:01:03.781Z,6.60
2019-02-21T17:03:33.877Z,7.40
2019-02-21T17:06:04.044Z,7.80
2019-02-21T17:08:36.982Z,8.60
2019-02-21T17:11:07.216Z,10.23
2019-02-21T17:13:37.360Z,10.33
2019-02-21T17:16:07.497Z,11.00
2019-02-21T17:18:37.673Z,9.07
2019-02-21T17:21:07.881Z,9.47
2019-02-21T17:23:40.372Z,13.57
2019-02-21T17:26:10.529Z,12.67
2019-02-21T17:28:40.744Z,10.23
2019-02-21T17:31:11.016Z,11.63
2019-02-21T17:33:41.225Z,9.93
2019-02-21T17:36:11.543Z,9.43
2019-02-21T17:38:41.800Z,7.07
2019-02-21T17:41:12.054Z,7.87
2019-02-21T17:43:42.210Z,8.73
2019-02-21T17:46:12.480Z,7.37
2019-02-21T17:48:42.717Z,7.27
2019-02-21T17:51:12.886Z,6.83
2019-02-21T17:53:43.105Z,5.33
2019-02-21T17:56:13.479Z,6.03
2019-02-21T17:58:43.679Z,4.17
2019-02-21T18:01:13.852Z,5.13
2019-02-21T18:03:44.050Z,6.50
2019-02-21T18:06:14.203Z,5.23
2019-02-21T18:08:44.418Z,4.17
2019-02-21T18:11:14.681Z,4.47
2019-02-21T18:13:44.936Z,5.70
2019-02-21T18:16:15.206Z,4.53
2019-02-21T18:18:45.469Z,4.63
2019-02-21T18:21:15.645Z,5.40
2019-02-21T18:23:45.857Z,5.77
2019-02-21T18:26:16.719Z,5.93
2019-02-21T18:28:46.943Z,5.53
2019-02-21T18:31:17.190Z,5.03
2019-02-21T18:33:47.397Z,6.70
2019-02-21T18:36:17.607Z,5.27
2019-02-21T18:38:47.831Z,5.57
2019-02-21T18:41:18.065Z,5.40
2019-02-21T18:43:48.274Z,6.27
2019-02-21T18:46:18.495Z,7.30
2019-02-21T18:48:48.734Z,8.83
2019-02-21T18:51:19.040Z,5.70
2019-02-21T18:53:49.239Z,5.70
2019-02-21T18:56:19.583Z,5.00
2019-02-21T18:58:49.842Z,5.43
2019-02-21T19:01:20.139Z,6.13
2019-02-21T19:03:50.269Z,6.80
2019-02-21T19:06:20.460Z,6.60
2019-02-21T19:08:50.656Z,5.47
2019-02-21T19:11:20.936Z,5.73
2019-02-21T19:13:51.087Z,6.83
2019-02-21T19:16:21.499Z,5.00
2019-02-21T19:18:51.782Z,4.43
2019-02-21T19:21:22.037Z,4.00
2019-02-21T19:23:52.183Z,4.07
2019-02-21T19:26:22.252Z,4.57
2019-02-21T19:28:52.526Z,5.00
2019-02-21T19:31:22.786Z,4.43
2019-02-21T19:33:52.966Z,4.77
2019-02-21T19:36:23.242Z,4.13
2019-02-21T19:38:53.478Z,4.90
2019-02-21T19:41:23.782Z,5.40
2019-02-21T19:43:54.026Z,6.20
2019-02-21T19:46:24.343Z,5.73
2019-02-21T19:48:54.571Z,4.47
2019-02-21T19:51:24.830Z,5.20
2019-02-21T19:53:55.079Z,7.40
2019-02-21T19:56:25.677Z,5.03
2019-02-21T19:58:55.915Z,5.23
2019-02-21T20:01:26.167Z,5.37
2019-02-21T20:03:56.416Z,4.87
2019-02-21T20:06:26.672Z,4.80
2019-02-21T20:08:56.900Z,6.03
2019-02-21T20:11:27.231Z,5.17
2019-02-21T20:13:57.432Z,5.13
2019-02-21T20:16:27.807Z,6.93
2019-02-21T20:18:57.962Z,7.27
2019-02-21T20:21:28.250Z,9.00
2019-02-21T20:23:58.485Z,10.53
2019-02-21T20:26:28.819Z,8.43
2019-02-21T20:28:59.024Z,8.40
2019-02-21T20:31:29.329Z,8.73
2019-02-21T20:33:59.540Z,10.27
2019-02-21T20:36:29.758Z,11.37
2019-02-21T20:38:59.970Z,10.33
2019-02-21T20:41:30.234Z,11.23
2019-02-21T20:44:00.427Z,11.43
2019-02-21T20:46:30.509Z,9.83
2019-02-21T20:49:00.649Z,6.93
2019-02-21T20:51:30.837Z,6.30
2019-02-21T20:54:00.978Z,6.20
2019-02-21T20:56:31.288Z,5.50
2019-02-21T20:59:01.413Z,4.20
2019-02-21T21:01:31.717Z,4.73
2019-02-21T21:04:01.930Z,6.97
2019-02-21T21:06:32.181Z,4.50
2019-02-21T21:09:02.397Z,4.83
2019-02-21T21:11:32.570Z,5.60
2019-02-21T21:14:02.653Z,4.13
2019-02-21T21:16:32.911Z,3.70
2019-02-21T21:19:03.030Z,4.13
2019-02-21T21:21:33.206Z,3.80
2019-02-21T21:24:03.645Z,4.77
2019-02-21T21:26:33.838Z,3.70
2019-02-21T21:29:04.080Z,4.73
2019-02-21T21:31:34.196Z,4.00
2019-02-21T21:34:04.409Z,5.67
2019-02-21T21:36:34.740Z,3.50
2019-02-21T21:39:05.349Z,3.33
2019-02-21T21:41:35.387Z,3.80
2019-02-21T21:44:05.756Z,4.10
2019-02-21T21:46:36.073Z,3.73
2019-02-21T21:49:06.346Z,4.00
2019-02-21T21:51:36.661Z,4.10
2019-02-21T21:57:30.341Z,4.27
2019-02-21T22:00:00.649Z,4.77
2019-02-21T22:02:31.026Z,5.20
2019-02-21T22:05:01.295Z,6.23
2019-02-21T22:07:31.619Z,6.50
2019-02-21T22:10:01.852Z,6.73
2019-02-21T22:12:32.145Z,5.47
2019-02-21T22:15:02.436Z,5.53
2019-02-21T22:17:32.770Z,4.80
2019-02-21T22:20:02.998Z,4.70
2019-02-21T22:22:33.393Z,4.50
2019-02-21T22:25:04.014Z,3.93
2019-02-21T22:27:34.332Z,4.20
2019-02-21T22:30:06.179Z,3.57
2019-02-21T22:32:36.496Z,5.27
2019-02-21T22:35:07.628Z,5.10
2019-02-21T22:37:37.933Z,5.97
2019-02-21T22:40:10.470Z,7.07
2019-02-21T22:42:40.763Z,7.47
2019-02-21T22:45:11.098Z,7.13
2019-02-21T22:47:41.421Z,7.80
2019-02-21T22:50:17.377Z,6.87
2019-02-21T22:52:47.650Z,5.60
2019-02-21T22:55:17.899Z,4.97
2019-02-21T22:57:48.012Z,3.93
2019-02-21T23:00:31.900Z,3.03
2019-02-21T23:03:02.426Z,3.17
2019-02-21T23:05:52.448Z,3.93
2019-02-21T23:08:45.220Z,3.97
2019-02-21T23:11:15.536Z,4.03
2019-02-21T23:13:45.888Z,3.20
2019-02-21T23:19:12.401Z,3.43
2019-02-21T23:21:42.508Z,3.87
2019-02-21T23:24:12.742Z,3.80
2019-02-21T23:26:42.972Z,5.10
2019-02-21T23:29:13.247Z,5.90
2019-02-21T23:31:43.421Z,3.80
2019-02-21T23:34:15.241Z,4.40
2019-02-21T23:36:45.363Z,8.43
2019-02-21T23:39:15.700Z,8.03
2019-02-21T23:41:45.835Z,18.77
2019-02-21T23:44:16.084Z,19.33
2019-02-21T23:46:46.319Z,16.63
2019-02-21T23:49:16.446Z,8.03
2019-02-21T23:51:46.659Z,8.90
2019-02-21T23:54:16.812Z,6.87
2019-02-21T23:56:47.028Z,6.50
2019-02-21T23:59:17.239Z,6.87
